sensor_id;sensor_type;location;lat;lon;timestamp;P1;durP1;ratioP1;P2;durP2;ratioP2
44536;SDS011;30245;51.966;6.292;2022-08-19T00:00:34;2.40;;;2.20;;
44536;SDS011;30245;51.966;6.292;2022-08-19T00:03:00;3.15;;;2.85;;
44536;SDS011;30245;51.966;6.292;2022-08-19T00:05:26;3.38;;;3.00;;
44536;SDS011;30245;51.966;6.292;2022-08-19T00:07:51;2.58;;;2.35;;
44536;SDS011;30245;51.966;6.292;2022-08-19T00:10:17;3.25;;;3.05;;
44536;SDS011;30245;51.966;6.292;2022-08-19T00:12:44;3.80;;;3.17;;
44536;SDS011;30245;51.966;6.292;2022-08-19T00:15:10;3.33;;;3.00;;
44536;SDS011;30245;51.966;6.292;2022-08-19T00:17:39;3.55;;;3.25;;
44536;SDS011;30245;51.966;6.292;2022-08-19T00:20:05;4.00;;;3.67;;
44536;SDS011;30245;51.966;6.292;2022-08-19T00:22:32;4.35;;;4.05;;
44536;SDS011;30245;51.966;6.292;2022-08-19T00:24:58;3.70;;;3.50;;
44536;SDS011;30245;51.966;6.292;2022-08-19T00:27:23;4.30;;;3.90;;
44536;SDS011;30245;51.966;6.292;2022-08-19T00:29:49;3.42;;;3.20;;
44536;SDS011;30245;51.966;6.292;2022-08-19T00:32:15;3.75;;;3.45;;
44536;SDS011;30245;51.966;6.292;2022-08-19T00:34:41;3.97;;;3.67;;
44536;SDS011;30245;51.966;6.292;2022-08-19T00:37:07;3.80;;;3.50;;
44536;SDS011;30245;51.966;6.292;2022-08-19T00:39:32;4.28;;;2.88;;
44536;SDS011;30245;51.966;6.292;2022-08-19T00:41:58;4.18;;;3.88;;
44536;SDS011;30245;51.966;6.292;2022-08-19T00:44:25;4.65;;;3.05;;
44536;SDS011;30245;51.966;6.292;2022-08-19T00:46:53;3.63;;;3.35;;
44536;SDS011;30245;51.966;6.292;2022-08-19T00:51:47;2.95;;;2.63;;
44536;SDS011;30245;51.966;6.292;2022-08-19T00:54:19;5.40;;;3.17;;
44536;SDS011;30245;51.966;6.292;2022-08-19T00:56:46;3.97;;;3.55;;
44536;SDS011;30245;51.966;6.292;2022-08-19T00:59:13;4.25;;;3.88;;
44536;SDS011;30245;51.966;6.292;2022-08-19T01:01:40;5.90;;;3.47;;
44536;SDS011;30245;51.966;6.292;2022-08-19T01:06:33;3.40;;;3.20;;
44536;SDS011;30245;51.966;6.292;2022-08-19T01:09:01;3.95;;;3.65;;
44536;SDS011;30245;51.966;6.292;2022-08-19T01:11:28;3.75;;;3.45;;
44536;SDS011;30245;51.966;6.292;2022-08-19T01:13:56;3.92;;;3.63;;
44536;SDS011;30245;51.966;6.292;2022-08-19T01:16:23;4.57;;;3.72;;
44536;SDS011;30245;51.966;6.292;2022-08-19T01:18:52;3.97;;;3.60;;
44536;SDS011;30245;51.966;6.292;2022-08-19T01:23:56;5.13;;;4.72;;
44536;SDS011;30245;51.966;6.292;2022-08-19T01:26:22;3.90;;;3.45;;
44536;SDS011;30245;51.966;6.292;2022-08-19T01:31:19;3.83;;;3.47;;
44536;SDS011;30245;51.966;6.292;2022-08-19T01:33:47;3.92;;;3.63;;
44536;SDS011;30245;51.966;6.292;2022-08-19T01:36:15;4.15;;;3.85;;
44536;SDS011;30245;51.966;6.292;2022-08-19T01:38:48;4.30;;;3.78;;
44536;SDS011;30245;51.966;6.292;2022-08-19T01:41:14;4.82;;;3.10;;
44536;SDS011;30245;51.966;6.292;2022-08-19T01:43:42;4.30;;;4.00;;
44536;SDS011;30245;51.966;6.292;2022-08-19T01:46:07;3.85;;;3.55;;
44536;SDS011;30245;51.966;6.292;2022-08-19T01:48:34;4.70;;;4.30;;
44536;SDS011;30245;51.966;6.292;2022-08-19T01:53:27;4.15;;;3.85;;
44536;SDS011;30245;51.966;6.292;2022-08-19T01:55:53;5.03;;;4.63;;
44536;SDS011;30245;51.966;6.292;2022-08-19T01:58:19;4.55;;;4.15;;
44536;SDS011;30245;51.966;6.292;2022-08-19T02:00:49;4.85;;;4.30;;
44536;SDS011;30245;51.966;6.292;2022-08-19T02:03:15;4.88;;;4.47;;
44536;SDS011;30245;51.966;6.292;2022-08-19T02:05:41;4.75;;;4.35;;
44536;SDS011;30245;51.966;6.292;2022-08-19T02:08:08;5.55;;;5.15;;
44536;SDS011;30245;51.966;6.292;2022-08-19T02:10:37;5.40;;;4.70;;
44536;SDS011;30245;51.966;6.292;2022-08-19T02:13:04;5.63;;;5.13;;
44536;SDS011;30245;51.966;6.292;2022-08-19T02:15:30;4.55;;;4.15;;
44536;SDS011;30245;51.966;6.292;2022-08-19T02:17:55;5.13;;;4.60;;
44536;SDS011;30245;51.966;6.292;2022-08-19T02:20:21;6.43;;;5.93;;
44536;SDS011;30245;51.966;6.292;2022-08-19T02:22:47;6.47;;;5.00;;
44536;SDS011;30245;51.966;6.292;2022-08-19T02:25:13;5.75;;;5.32;;
44536;SDS011;30245;51.966;6.292;2022-08-19T02:27:40;5.28;;;4.72;;
44536;SDS011;30245;51.966;6.292;2022-08-19T02:30:07;6.00;;;5.57;;
44536;SDS011;30245;51.966;6.292;2022-08-19T02:35:00;6.47;;;5.15;;
44536;SDS011;30245;51.966;6.292;2022-08-19T02:37:26;6.32;;;5.72;;
44536;SDS011;30245;51.966;6.292;2022-08-19T02:40:11;5.25;;;4.85;;
44536;SDS011;30245;51.966;6.292;2022-08-19T02:42:37;6.00;;;5.55;;
44536;SDS011;30245;51.966;6.292;2022-08-19T02:45:03;5.45;;;5.05;;
44536;SDS011;30245;51.966;6.292;2022-08-19T02:47:29;5.60;;;5.10;;
44536;SDS011;30245;51.966;6.292;2022-08-19T02:49:55;5.40;;;4.97;;
44536;SDS011;30245;51.966;6.292;2022-08-19T02:52:21;6.00;;;5.50;;
44536;SDS011;30245;51.966;6.292;2022-08-19T02:54:48;6.25;;;5.30;;
44536;SDS011;30245;51.966;6.292;2022-08-19T02:57:14;6.18;;;5.65;;
44536;SDS011;30245;51.966;6.292;2022-08-19T02:59:40;7.00;;;6.35;;
44536;SDS011;30245;51.966;6.292;2022-08-19T03:02:05;6.13;;;5.63;;
44536;SDS011;30245;51.966;6.292;2022-08-19T03:04:31;6.30;;;5.70;;
44536;SDS011;30245;51.966;6.292;2022-08-19T03:06:56;7.32;;;6.15;;
44536;SDS011;30245;51.966;6.292;2022-08-19T03:09:22;6.53;;;5.88;;
44536;SDS011;30245;51.966;6.292;2022-08-19T03:11:47;6.53;;;5.60;;
44536;SDS011;30245;51.966;6.292;2022-08-19T03:14:13;5.80;;;5.40;;
44536;SDS011;30245;51.966;6.292;2022-08-19T03:16:41;7.00;;;6.43;;
44536;SDS011;30245;51.966;6.292;2022-08-19T03:19:09;6.40;;;5.95;;
44536;SDS011;30245;51.966;6.292;2022-08-19T03:21:35;6.93;;;6.32;;
44536;SDS011;30245;51.966;6.292;2022-08-19T03:24:01;6.00;;;5.60;;
44536;SDS011;30245;51.966;6.292;2022-08-19T03:26:29;5.47;;;5.07;;
44536;SDS011;30245;51.966;6.292;2022-08-19T03:28:55;5.93;;;5.53;;
44536;SDS011;30245;51.966;6.292;2022-08-19T03:31:26;4.97;;;4.57;;
44536;SDS011;30245;51.966;6.292;2022-08-19T03:33:52;6.45;;;5.95;;
44536;SDS011;30245;51.966;6.292;2022-08-19T03:36:19;5.68;;;5.18;;
44536;SDS011;30245;51.966;6.292;2022-08-19T03:38:49;6.25;;;5.35;;
44536;SDS011;30245;51.966;6.292;2022-08-19T03:41:21;8.50;;;7.15;;
44536;SDS011;30245;51.966;6.292;2022-08-19T03:43:48;8.27;;;7.57;;
44536;SDS011;30245;51.966;6.292;2022-08-19T03:46:16;7.88;;;6.78;;
44536;SDS011;30245;51.966;6.292;2022-08-19T03:48:45;7.93;;;5.75;;
44536;SDS011;30245;51.966;6.292;2022-08-19T03:51:19;8.50;;;7.15;;
44536;SDS011;30245;51.966;6.292;2022-08-19T03:53:48;7.53;;;6.68;;
44536;SDS011;30245;51.966;6.292;2022-08-19T03:56:14;7.80;;;7.03;;
44536;SDS011;30245;51.966;6.292;2022-08-19T03:58:40;7.40;;;6.80;;
44536;SDS011;30245;51.966;6.292;2022-08-19T04:01:25;6.82;;;6.22;;
44536;SDS011;30245;51.966;6.292;2022-08-19T04:03:52;6.57;;;6.07;;
44536;SDS011;30245;51.966;6.292;2022-08-19T04:06:30;6.53;;;6.03;;
44536;SDS011;30245;51.966;6.292;2022-08-19T04:08:58;7.18;;;6.60;;
44536;SDS011;30245;51.966;6.292;2022-08-19T04:11:27;7.40;;;6.80;;
44536;SDS011;30245;51.966;6.292;2022-08-19T04:13:55;8.05;;;7.40;;
44536;SDS011;30245;51.966;6.292;2022-08-19T04:16:22;7.07;;;6.50;;
44536;SDS011;30245;51.966;6.292;2022-08-19T04:18:54;7.25;;;6.10;;
44536;SDS011;30245;51.966;6.292;2022-08-19T04:21:21;6.80;;;6.20;;
44536;SDS011;30245;51.966;6.292;2022-08-19T04:23:49;7.53;;;6.82;;
44536;SDS011;30245;51.966;6.292;2022-08-19T04:26:16;8.88;;;7.70;;
44536;SDS011;30245;51.966;6.292;2022-08-19T04:28:45;7.25;;;6.68;;
44536;SDS011;30245;51.966;6.292;2022-08-19T04:31:15;7.93;;;7.15;;
44536;SDS011;30245;51.966;6.292;2022-08-19T04:33:42;7.05;;;6.43;;
44536;SDS011;30245;51.966;6.292;2022-08-19T04:36:08;6.68;;;6.03;;
44536;SDS011;30245;51.966;6.292;2022-08-19T04:38:45;7.65;;;6.95;;
44536;SDS011;30245;51.966;6.292;2022-08-19T04:41:12;6.70;;;6.07;;
44536;SDS011;30245;51.966;6.292;2022-08-19T04:43:56;7.07;;;6.47;;
44536;SDS011;30245;51.966;6.292;2022-08-19T04:46:22;6.22;;;5.72;;
44536;SDS011;30245;51.966;6.292;2022-08-19T04:48:48;7.05;;;5.65;;
44536;SDS011;30245;51.966;6.292;2022-08-19T04:51:14;5.80;;;5.40;;
44536;SDS011;30245;51.966;6.292;2022-08-19T04:53:40;6.65;;;6.15;;
44536;SDS011;30245;51.966;6.292;2022-08-19T04:56:08;7.93;;;7.22;;
44536;SDS011;30245;51.966;6.292;2022-08-19T04:58:39;6.68;;;6.07;;
44536;SDS011;30245;51.966;6.292;2022-08-19T05:01:07;6.78;;;6.28;;
44536;SDS011;30245;51.966;6.292;2022-08-19T05:03:36;6.05;;;5.43;;
44536;SDS011;30245;51.966;6.292;2022-08-19T05:06:06;6.45;;;5.95;;
44536;SDS011;30245;51.966;6.292;2022-08-19T05:08:35;6.63;;;6.13;;
44536;SDS011;30245;51.966;6.292;2022-08-19T05:11:11;6.85;;;6.30;;
44536;SDS011;30245;51.966;6.292;2022-08-19T05:13:40;7.40;;;6.70;;
44536;SDS011;30245;51.966;6.292;2022-08-19T05:16:08;6.13;;;5.63;;
44536;SDS011;30245;51.966;6.292;2022-08-19T05:18:34;7.32;;;6.53;;
44536;SDS011;30245;51.966;6.292;2022-08-19T05:21:19;6.72;;;6.10;;
44536;SDS011;30245;51.966;6.292;2022-08-19T05:24:04;7.82;;;7.13;;
44536;SDS011;30245;51.966;6.292;2022-08-19T05:26:34;6.63;;;6.03;;
44536;SDS011;30245;51.966;6.292;2022-08-19T05:29:04;6.20;;;5.72;;
44536;SDS011;30245;51.966;6.292;2022-08-19T05:31:30;8.05;;;7.38;;
44536;SDS011;30245;51.966;6.292;2022-08-19T05:33:56;8.30;;;7.53;;
44536;SDS011;30245;51.966;6.292;2022-08-19T05:36:23;7.20;;;6.70;;
44536;SDS011;30245;51.966;6.292;2022-08-19T05:38:50;7.15;;;6.63;;
44536;SDS011;30245;51.966;6.292;2022-08-19T05:41:17;7.60;;;6.67;;
44536;SDS011;30245;51.966;6.292;2022-08-19T05:43:43;7.63;;;6.95;;
44536;SDS011;30245;51.966;6.292;2022-08-19T05:46:15;8.75;;;7.38;;
44536;SDS011;30245;51.966;6.292;2022-08-19T05:48:44;7.53;;;6.82;;
44536;SDS011;30245;51.966;6.292;2022-08-19T05:51:10;6.68;;;6.07;;
44536;SDS011;30245;51.966;6.292;2022-08-19T05:53:37;7.50;;;6.90;;
44536;SDS011;30245;51.966;6.292;2022-08-19T05:56:06;9.35;;;8.50;;
44536;SDS011;30245;51.966;6.292;2022-08-19T05:58:33;9.30;;;8.50;;
44536;SDS011;30245;51.966;6.292;2022-08-19T06:00:59;8.73;;;8.02;;
44536;SDS011;30245;51.966;6.292;2022-08-19T06:03:30;10.20;;;9.25;;
44536;SDS011;30245;51.966;6.292;2022-08-19T06:05:59;9.13;;;8.43;;
44536;SDS011;30245;51.966;6.292;2022-08-19T06:08:25;8.63;;;7.85;;
44536;SDS011;30245;51.966;6.292;2022-08-19T06:10:51;10.85;;;9.73;;
44536;SDS011;30245;51.966;6.292;2022-08-19T06:13:17;11.02;;;10.02;;
44536;SDS011;30245;51.966;6.292;2022-08-19T06:15:44;9.48;;;8.68;;
44536;SDS011;30245;51.966;6.292;2022-08-19T06:18:11;10.75;;;8.57;;
44536;SDS011;30245;51.966;6.292;2022-08-19T06:20:37;11.02;;;9.90;;
44536;SDS011;30245;51.966;6.292;2022-08-19T06:23:03;9.55;;;8.75;;
44536;SDS011;30245;51.966;6.292;2022-08-19T06:25:29;10.98;;;9.98;;
44536;SDS011;30245;51.966;6.292;2022-08-19T06:27:55;11.02;;;9.98;;
44536;SDS011;30245;51.966;6.292;2022-08-19T06:30:21;11.27;;;10.23;;
44536;SDS011;30245;51.966;6.292;2022-08-19T06:32:46;11.15;;;10.05;;
44536;SDS011;30245;51.966;6.292;2022-08-19T06:35:12;13.35;;;12.15;;
44536;SDS011;30245;51.966;6.292;2022-08-19T06:37:39;13.98;;;12.73;;
44536;SDS011;30245;51.966;6.292;2022-08-19T06:40:05;15.45;;;13.73;;
44536;SDS011;30245;51.966;6.292;2022-08-19T06:42:33;15.02;;;13.60;;
44536;SDS011;30245;51.966;6.292;2022-08-19T06:44:59;15.02;;;13.23;;
44536;SDS011;30245;51.966;6.292;2022-08-19T06:47:27;14.15;;;12.70;;
44536;SDS011;30245;51.966;6.292;2022-08-19T06:49:54;14.73;;;13.43;;
44536;SDS011;30245;51.966;6.292;2022-08-19T06:52:26;15.50;;;14.10;;
44536;SDS011;30245;51.966;6.292;2022-08-19T06:54:52;14.85;;;13.45;;
44536;SDS011;30245;51.966;6.292;2022-08-19T06:57:19;21.88;;;19.60;;
44536;SDS011;30245;51.966;6.292;2022-08-19T06:59:44;18.30;;;16.48;;
44536;SDS011;30245;51.966;6.292;2022-08-19T07:02:10;18.48;;;16.67;;
44536;SDS011;30245;51.966;6.292;2022-08-19T07:04:36;17.35;;;15.43;;
44536;SDS011;30245;51.966;6.292;2022-08-19T07:07:07;16.80;;;15.27;;
44536;SDS011;30245;51.966;6.292;2022-08-19T07:09:38;17.92;;;16.02;;
44536;SDS011;30245;51.966;6.292;2022-08-19T07:12:05;16.42;;;14.77;;
44536;SDS011;30245;51.966;6.292;2022-08-19T07:14:33;14.93;;;13.45;;
44536;SDS011;30245;51.966;6.292;2022-08-19T07:17:02;15.45;;;13.77;;
44536;SDS011;30245;51.966;6.292;2022-08-19T07:19:30;17.58;;;14.63;;
44536;SDS011;30245;51.966;6.292;2022-08-19T07:21:56;16.25;;;14.73;;
44536;SDS011;30245;51.966;6.292;2022-08-19T07:24:26;14.95;;;13.55;;
44536;SDS011;30245;51.966;6.292;2022-08-19T07:26:53;17.02;;;15.18;;
44536;SDS011;30245;51.966;6.292;2022-08-19T07:29:21;16.00;;;14.40;;
44536;SDS011;30245;51.966;6.292;2022-08-19T07:31:48;15.63;;;14.07;;
44536;SDS011;30245;51.966;6.292;2022-08-19T07:34:14;16.88;;;15.27;;
44536;SDS011;30245;51.966;6.292;2022-08-19T07:36:41;21.23;;;13.70;;
44536;SDS011;30245;51.966;6.292;2022-08-19T07:39:09;15.65;;;14.05;;
44536;SDS011;30245;51.966;6.292;2022-08-19T07:41:43;13.73;;;12.30;;
44536;SDS011;30245;51.966;6.292;2022-08-19T07:44:09;16.58;;;14.98;;
44536;SDS011;30245;51.966;6.292;2022-08-19T07:46:36;17.63;;;15.88;;
44536;SDS011;30245;51.966;6.292;2022-08-19T07:49:05;17.67;;;15.82;;
44536;SDS011;30245;51.966;6.292;2022-08-19T07:51:32;15.20;;;13.80;;
44536;SDS011;30245;51.966;6.292;2022-08-19T07:53:58;17.40;;;15.57;;
44536;SDS011;30245;51.966;6.292;2022-08-19T07:56:25;15.55;;;13.98;;
44536;SDS011;30245;51.966;6.292;2022-08-19T07:58:51;16.45;;;14.75;;
44536;SDS011;30245;51.966;6.292;2022-08-19T08:01:19;16.15;;;14.60;;
44536;SDS011;30245;51.966;6.292;2022-08-19T08:03:49;15.15;;;13.70;;
44536;SDS011;30245;51.966;6.292;2022-08-19T08:06:36;14.30;;;12.77;;
44536;SDS011;30245;51.966;6.292;2022-08-19T08:09:22;15.82;;;13.77;;
44536;SDS011;30245;51.966;6.292;2022-08-19T08:12:04;16.38;;;14.73;;
44536;SDS011;30245;51.966;6.292;2022-08-19T08:14:34;17.25;;;15.07;;
44536;SDS011;30245;51.966;6.292;2022-08-19T08:17:03;13.68;;;12.40;;
44536;SDS011;30245;51.966;6.292;2022-08-19T08:21:56;13.52;;;12.10;;
44536;SDS011;30245;51.966;6.292;2022-08-19T08:24:24;13.98;;;12.60;;
44536;SDS011;30245;51.966;6.292;2022-08-19T08:26:54;12.98;;;11.73;;
44536;SDS011;30245;51.966;6.292;2022-08-19T08:29:19;15.00;;;13.40;;
44536;SDS011;30245;51.966;6.292;2022-08-19T08:31:46;17.08;;;15.23;;
44536;SDS011;30245;51.966;6.292;2022-08-19T08:34:12;16.00;;;14.40;;
44536;SDS011;30245;51.966;6.292;2022-08-19T08:36:39;15.85;;;14.25;;
44536;SDS011;30245;51.966;6.292;2022-08-19T08:41:44;16.73;;;14.25;;
44536;SDS011;30245;51.966;6.292;2022-08-19T08:44:17;15.25;;;13.75;;
44536;SDS011;30245;51.966;6.292;2022-08-19T08:46:48;18.65;;;14.52;;
44536;SDS011;30245;51.966;6.292;2022-08-19T08:51:51;14.18;;;12.02;;
44536;SDS011;30245;51.966;6.292;2022-08-19T08:54:30;18.08;;;14.50;;
44536;SDS011;30245;51.966;6.292;2022-08-19T08:56:58;20.23;;;16.38;;
44536;SDS011;30245;51.966;6.292;2022-08-19T08:59:31;15.90;;;14.18;;
44536;SDS011;30245;51.966;6.292;2022-08-19T09:02:01;15.43;;;13.80;;
44536;SDS011;30245;51.966;6.292;2022-08-19T09:04:27;18.02;;;15.98;;
44536;SDS011;30245;51.966;6.292;2022-08-19T09:06:55;18.42;;;15.00;;
44536;SDS011;30245;51.966;6.292;2022-08-19T09:09:40;17.42;;;14.60;;
44536;SDS011;30245;51.966;6.292;2022-08-19T09:15:06;22.88;;;18.23;;
44536;SDS011;30245;51.966;6.292;2022-08-19T09:17:34;23.30;;;16.67;;
44536;SDS011;30245;51.966;6.292;2022-08-19T09:20:19;18.85;;;15.40;;
44536;SDS011;30245;51.966;6.292;2022-08-19T09:22:47;24.88;;;18.30;;
44536;SDS011;30245;51.966;6.292;2022-08-19T09:25:15;22.15;;;18.40;;
44536;SDS011;30245;51.966;6.292;2022-08-19T09:27:43;21.35;;;15.95;;
44536;SDS011;30245;51.966;6.292;2022-08-19T09:33:05;13.82;;;11.52;;
44536;SDS011;30245;51.966;6.292;2022-08-19T09:35:32;12.13;;;10.63;;
44536;SDS011;30245;51.966;6.292;2022-08-19T09:37:58;14.07;;;11.85;;
44536;SDS011;30245;51.966;6.292;2022-08-19T09:40:24;13.85;;;11.98;;
44536;SDS011;30245;51.966;6.292;2022-08-19T09:42:51;14.43;;;10.65;;
44536;SDS011;30245;51.966;6.292;2022-08-19T09:45:17;13.57;;;12.25;;
44536;SDS011;30245;51.966;6.292;2022-08-19T09:47:48;12.45;;;10.10;;
44536;SDS011;30245;51.966;6.292;2022-08-19T09:50:16;10.23;;;9.32;;
44536;SDS011;30245;51.966;6.292;2022-08-19T09:52:43;10.93;;;9.83;;
44536;SDS011;30245;51.966;6.292;2022-08-19T09:55:09;9.77;;;8.85;;
44536;SDS011;30245;51.966;6.292;2022-08-19T09:57:36;11.32;;;9.75;;
44536;SDS011;30245;51.966;6.292;2022-08-19T10:00:06;7.30;;;6.60;;
44536;SDS011;30245;51.966;6.292;2022-08-19T10:02:33;4.90;;;4.50;;
44536;SDS011;30245;51.966;6.292;2022-08-19T10:05:00;7.68;;;4.93;;
44536;SDS011;30245;51.966;6.292;2022-08-19T10:07:45;5.78;;;4.78;;
44536;SDS011;30245;51.966;6.292;2022-08-19T10:10:10;8.38;;;6.78;;
44536;SDS011;30245;51.966;6.292;2022-08-19T10:12:36;12.15;;;5.28;;
44536;SDS011;30245;51.966;6.292;2022-08-19T10:15:02;4.07;;;3.78;;
44536;SDS011;30245;51.966;6.292;2022-08-19T10:17:29;5.57;;;3.90;;
44536;SDS011;30245;51.966;6.292;2022-08-19T10:19:55;4.00;;;3.70;;
44536;SDS011;30245;51.966;6.292;2022-08-19T10:22:20;4.53;;;4.15;;
44536;SDS011;30245;51.966;6.292;2022-08-19T10:24:46;4.70;;;4.18;;
44536;SDS011;30245;51.966;6.292;2022-08-19T10:27:12;4.45;;;2.95;;
44536;SDS011;30245;51.966;6.292;2022-08-19T10:29:39;2.10;;;1.90;;
44536;SDS011;30245;51.966;6.292;2022-08-19T10:32:05;1.88;;;1.70;;
44536;SDS011;30245;51.966;6.292;2022-08-19T10:34:33;4.20;;;1.77;;
44536;SDS011;30245;51.966;6.292;2022-08-19T10:37:01;1.77;;;0.85;;
44536;SDS011;30245;51.966;6.292;2022-08-19T10:39:36;1.60;;;0.80;;
44536;SDS011;30245;51.966;6.292;2022-08-19T10:42:05;1.73;;;1.52;;
44536;SDS011;30245;51.966;6.292;2022-08-19T10:44:33;4.28;;;1.65;;
44536;SDS011;30245;51.966;6.292;2022-08-19T10:47:00;2.63;;;2.15;;
44536;SDS011;30245;51.966;6.292;2022-08-19T10:49:26;2.78;;;2.08;;
44536;SDS011;30245;51.966;6.292;2022-08-19T10:51:52;5.88;;;3.50;;
44536;SDS011;30245;51.966;6.292;2022-08-19T10:54:36;4.22;;;2.38;;
44536;SDS011;30245;51.966;6.292;2022-08-19T10:57:20;4.05;;;3.42;;
44536;SDS011;30245;51.966;6.292;2022-08-19T10:59:49;5.22;;;3.85;;
44536;SDS011;30245;51.966;6.292;2022-08-19T11:02:14;6.22;;;4.18;;
44536;SDS011;30245;51.966;6.292;2022-08-19T11:04:40;11.48;;;6.28;;
44536;SDS011;30245;51.966;6.292;2022-08-19T11:07:06;11.02;;;7.72;;
44536;SDS011;30245;51.966;6.292;2022-08-19T11:09:36;8.95;;;7.13;;
44536;SDS011;30245;51.966;6.292;2022-08-19T11:12:04;9.73;;;7.22;;
44536;SDS011;30245;51.966;6.292;2022-08-19T11:14:30;10.80;;;8.38;;
44536;SDS011;30245;51.966;6.292;2022-08-19T11:16:57;6.40;;;5.22;;
44536;SDS011;30245;51.966;6.292;2022-08-19T11:19:23;8.40;;;6.78;;
44536;SDS011;30245;51.966;6.292;2022-08-19T11:21:49;9.88;;;7.18;;
44536;SDS011;30245;51.966;6.292;2022-08-19T11:24:17;12.40;;;8.45;;
44536;SDS011;30245;51.966;6.292;2022-08-19T11:26:48;8.45;;;6.78;;
44536;SDS011;30245;51.966;6.292;2022-08-19T11:29:16;11.38;;;8.75;;
44536;SDS011;30245;51.966;6.292;2022-08-19T11:31:45;9.75;;;8.35;;
44536;SDS011;30245;51.966;6.292;2022-08-19T11:34:14;8.70;;;7.15;;
44536;SDS011;30245;51.966;6.292;2022-08-19T11:36:43;7.55;;;6.85;;
44536;SDS011;30245;51.966;6.292;2022-08-19T11:39:11;7.35;;;5.70;;
44536;SDS011;30245;51.966;6.292;2022-08-19T11:41:38;7.55;;;5.95;;
44536;SDS011;30245;51.966;6.292;2022-08-19T11:44:05;9.90;;;5.60;;
44536;SDS011;30245;51.966;6.292;2022-08-19T11:46:32;7.88;;;6.57;;
44536;SDS011;30245;51.966;6.292;2022-08-19T11:48:59;5.65;;;5.13;;
44536;SDS011;30245;51.966;6.292;2022-08-19T11:51:26;6.80;;;4.78;;
44536;SDS011;30245;51.966;6.292;2022-08-19T11:53:53;6.40;;;5.68;;
44536;SDS011;30245;51.966;6.292;2022-08-19T11:56:20;8.32;;;6.18;;
44536;SDS011;30245;51.966;6.292;2022-08-19T11:58:47;9.18;;;5.38;;
44536;SDS011;30245;51.966;6.292;2022-08-19T12:01:14;4.63;;;3.35;;
44536;SDS011;30245;51.966;6.292;2022-08-19T12:03:43;5.85;;;4.88;;
44536;SDS011;30245;51.966;6.292;2022-08-19T12:06:11;6.38;;;4.72;;
44536;SDS011;30245;51.966;6.292;2022-08-19T12:08:40;3.67;;;3.10;;
44536;SDS011;30245;51.966;6.292;2022-08-19T12:11:07;4.70;;;4.10;;
44536;SDS011;30245;51.966;6.292;2022-08-19T12:13:34;4.47;;;3.78;;
44536;SDS011;30245;51.966;6.292;2022-08-19T12:16:00;5.32;;;2.63;;
44536;SDS011;30245;51.966;6.292;2022-08-19T12:18:31;3.50;;;2.80;;
44536;SDS011;30245;51.966;6.292;2022-08-19T12:20:57;3.60;;;2.83;;
44536;SDS011;30245;51.966;6.292;2022-08-19T12:23:25;5.45;;;2.72;;
44536;SDS011;30245;51.966;6.292;2022-08-19T12:25:51;4.22;;;1.63;;
44536;SDS011;30245;51.966;6.292;2022-08-19T12:28:20;3.28;;;2.17;;
44536;SDS011;30245;51.966;6.292;2022-08-19T12:30:47;2.67;;;2.05;;
44536;SDS011;30245;51.966;6.292;2022-08-19T12:33:14;3.67;;;2.45;;
44536;SDS011;30245;51.966;6.292;2022-08-19T12:35:41;3.38;;;1.85;;
44536;SDS011;30245;51.966;6.292;2022-08-19T12:38:09;5.10;;;2.95;;
44536;SDS011;30245;51.966;6.292;2022-08-19T12:40:35;4.50;;;4.00;;
44536;SDS011;30245;51.966;6.292;2022-08-19T12:43:01;3.47;;;2.90;;
44536;SDS011;30245;51.966;6.292;2022-08-19T12:45:26;5.78;;;3.67;;
44536;SDS011;30245;51.966;6.292;2022-08-19T12:47:52;3.97;;;3.08;;
44536;SDS011;30245;51.966;6.292;2022-08-19T12:50:18;4.47;;;2.33;;
44536;SDS011;30245;51.966;6.292;2022-08-19T12:52:44;3.65;;;1.80;;
44536;SDS011;30245;51.966;6.292;2022-08-19T12:55:10;4.07;;;3.05;;
44536;SDS011;30245;51.966;6.292;2022-08-19T12:57:36;3.20;;;2.47;;
44536;SDS011;30245;51.966;6.292;2022-08-19T13:00:07;3.13;;;2.42;;
44536;SDS011;30245;51.966;6.292;2022-08-19T13:02:39;2.92;;;2.17;;
44536;SDS011;30245;51.966;6.292;2022-08-19T13:05:10;3.45;;;2.35;;
44536;SDS011;30245;51.966;6.292;2022-08-19T13:07:38;4.18;;;2.63;;
44536;SDS011;30245;51.966;6.292;2022-08-19T13:10:08;3.28;;;2.65;;
44536;SDS011;30245;51.966;6.292;2022-08-19T13:12:36;4.68;;;3.30;;
44536;SDS011;30245;51.966;6.292;2022-08-19T13:15:03;4.50;;;4.10;;
44536;SDS011;30245;51.966;6.292;2022-08-19T13:17:29;3.55;;;3.25;;
44536;SDS011;30245;51.966;6.292;2022-08-19T13:19:55;6.43;;;2.90;;
44536;SDS011;30245;51.966;6.292;2022-08-19T13:22:20;2.83;;;2.35;;
44536;SDS011;30245;51.966;6.292;2022-08-19T13:24:46;5.85;;;3.17;;
44536;SDS011;30245;51.966;6.292;2022-08-19T13:27:11;3.40;;;2.80;;
44536;SDS011;30245;51.966;6.292;2022-08-19T13:29:39;1.98;;;1.75;;
44536;SDS011;30245;51.966;6.292;2022-08-19T13:32:26;3.13;;;2.13;;
44536;SDS011;30245;51.966;6.292;2022-08-19T13:35:10;1.77;;;1.52;;
44536;SDS011;30245;51.966;6.292;2022-08-19T13:37:36;2.53;;;2.15;;
44536;SDS011;30245;51.966;6.292;2022-08-19T13:40:08;3.17;;;2.28;;
44536;SDS011;30245;51.966;6.292;2022-08-19T13:42:42;3.85;;;3.35;;
44536;SDS011;30245;51.966;6.292;2022-08-19T13:45:09;3.10;;;2.55;;
44536;SDS011;30245;51.966;6.292;2022-08-19T13:47:35;5.53;;;4.45;;
44536;SDS011;30245;51.966;6.292;2022-08-19T13:50:08;6.20;;;4.75;;
44536;SDS011;30245;51.966;6.292;2022-08-19T13:52:38;3.55;;;2.72;;
44536;SDS011;30245;51.966;6.292;2022-08-19T13:55:05;3.38;;;2.90;;
44536;SDS011;30245;51.966;6.292;2022-08-19T13:57:31;3.38;;;2.97;;
44536;SDS011;30245;51.966;6.292;2022-08-19T13:59:57;3.47;;;3.13;;
44536;SDS011;30245;51.966;6.292;2022-08-19T14:02:24;4.22;;;3.80;;
44536;SDS011;30245;51.966;6.292;2022-08-19T14:04:49;3.92;;;3.58;;
44536;SDS011;30245;51.966;6.292;2022-08-19T14:07:15;4.10;;;3.45;;
44536;SDS011;30245;51.966;6.292;2022-08-19T14:09:41;4.50;;;3.47;;
44536;SDS011;30245;51.966;6.292;2022-08-19T14:12:06;7.90;;;5.07;;
44536;SDS011;30245;51.966;6.292;2022-08-19T14:14:35;5.68;;;5.05;;
44536;SDS011;30245;51.966;6.292;2022-08-19T14:17:02;8.05;;;4.45;;
44536;SDS011;30245;51.966;6.292;2022-08-19T14:19:31;3.90;;;3.55;;
44536;SDS011;30245;51.966;6.292;2022-08-19T14:21:57;5.20;;;4.13;;
44536;SDS011;30245;51.966;6.292;2022-08-19T14:24:22;5.40;;;3.92;;
44536;SDS011;30245;51.966;6.292;2022-08-19T14:26:48;5.43;;;4.68;;
44536;SDS011;30245;51.966;6.292;2022-08-19T14:29:13;4.90;;;4.43;;
44536;SDS011;30245;51.966;6.292;2022-08-19T14:31:39;3.53;;;2.92;;
44536;SDS011;30245;51.966;6.292;2022-08-19T14:34:05;5.05;;;4.55;;
44536;SDS011;30245;51.966;6.292;2022-08-19T14:36:31;6.35;;;5.82;;
44536;SDS011;30245;51.966;6.292;2022-08-19T14:38:59;5.70;;;5.20;;
44536;SDS011;30245;51.966;6.292;2022-08-19T14:41:25;5.40;;;4.90;;
44536;SDS011;30245;51.966;6.292;2022-08-19T14:43:52;6.38;;;5.78;;
44536;SDS011;30245;51.966;6.292;2022-08-19T14:46:19;4.13;;;3.80;;
44536;SDS011;30245;51.966;6.292;2022-08-19T14:48:47;5.95;;;5.45;;
44536;SDS011;30245;51.966;6.292;2022-08-19T14:51:14;4.18;;;3.75;;
44536;SDS011;30245;51.966;6.292;2022-08-19T14:53:40;5.40;;;4.88;;
44536;SDS011;30245;51.966;6.292;2022-08-19T14:56:09;4.20;;;3.83;;
44536;SDS011;30245;51.966;6.292;2022-08-19T14:58:37;5.57;;;4.00;;
44536;SDS011;30245;51.966;6.292;2022-08-19T15:01:05;5.10;;;4.28;;
44536;SDS011;30245;51.966;6.292;2022-08-19T15:03:30;4.63;;;4.22;;
44536;SDS011;30245;51.966;6.292;2022-08-19T15:05:57;5.77;;;5.07;;
44536;SDS011;30245;51.966;6.292;2022-08-19T15:08:25;4.72;;;4.25;;
44536;SDS011;30245;51.966;6.292;2022-08-19T15:10:52;3.42;;;3.22;;
44536;SDS011;30245;51.966;6.292;2022-08-19T15:13:19;5.70;;;4.15;;